Hudson, ME

2:43 AM EST on January 28, 2015 (GMT -0500)
Libbey Lane | Change Station
CLOSE
Current Station
Personal Weather Station
Location: Glenburn, ME
Elevation: 194 ft
Nearby Weather Stations

Elev 194 ft 44.89 °N, 68.87 °W | Updated 2 minutes ago

Snow
Snow
11.5 °F
Feels Like 0 °F
N
7.8
Wind Variable Wind from ENE

Today
High -- | Low -- °F
--% Chance of Precip.
Yesterday
High -- | Low -- °F
Precip. -- in
7:00 AM 4:37 PM
Waxing Gibbous, 62% visible
Pressure 29.64 in
Visibility 1.2 miles
Clouds Overcast 1400 ft
Windchill 0 °F
Dew Point 10 °F
Humidity 94%
Rainfall 0.00 in
Snow Depth Not available.
UV 0 out of 12
Pollen .10 out of 12
Air Quality Not available.
Flu Activity Not available.
SPECI KBGR 280737Z 01019G28KT 1 1/4SM -SN BLSN BR OVC014 M11/M13 A2964 RMK AO2 PK WND 01028/0714 P0000 T11061133

More Conditions Fewer Conditions

Pressure 29.64 in
Visibility 1.2 miles
Clouds Overcast 1400 ft
Windchill 0 °F
Dew Point 10 °F
Humidity 94%
Rainfall 0.00 in
Snow Depth Not available.
UV 0 out of 12
Pollen .10 out of 12
Air Quality Not available.
Flu Activity Not available.
SPECI KBGR 280737Z 01019G28KT 1 1/4SM -SN BLSN BR OVC014 M11/M13 A2964 RMK AO2 PK WND 01028/0714 P0000 T11061133

More Conditions Fewer Conditions

10-Day Weather Forecast

Almanac

Astronomy

Jan. 28, 2015 Rise Set
Actual Time
Civil Twilight
Nautical Twilight
Astronomical Twilight
Moon
Length of Visible Light
Length of Day
Tomorrow will be .
, % of the Moon is Illuminated

Today's Extremes

State Highs State Lows

Community

WunderPhotos

Upload Photos

1,791,117 photos uploaded!

WunderBlogs® & News

Nearby

Air Quality

  Air Quality AQ Index Pollutant
Not available.

Snow Depth

Station Depth Elevation

Earthquake Activity

City Distance Mag. Time & Date
Minimum magnitude displayed is 2.5.

Coastal Water Temperatures

Place Temperature

Nearby Weather Stations